Roxbury, Pennsylvania
Current Conditions -  °F | °C
As of 8:53 AM on Wednesday 26 Nov 2014 (Local Time) from KHGR Reporting Station
Light Rain Light Rain  
Wind Chill: 31°   Ceiling: 2600
Heat Index: 36°   Visibility: 2mi
Dew Point: 33°   Wind: 6mph
Humidity: 89%   Direction: 10°N
Pressure: 30.06"   Gusts: NA
Location:  40.11°N, 77.66°W
Report Text: KHGR 261353Z 01005KT 2SM -RA BR FEW005 OVC026 02/01 A3006 RMK AO2 SLP195 P0007 T00220006
Loading
Personal Weather Stations






























Interactive Weather Map New forecast layout! Learn more

10-Day Weather Forecast

Advertisements
Track Severe Weather on mobile